sensor_id;sensor_type;location;lat;lon;timestamp;P1;durP1;ratioP1;P2;durP2;ratioP2
8946;SDS011;4508;48.790;9.028;2022-11-09T00:00:00;3.72;;;2.60;;
8946;SDS011;4508;48.790;9.028;2022-11-09T00:02:28;3.08;;;2.65;;
8946;SDS011;4508;48.790;9.028;2022-11-09T00:04:55;4.15;;;2.70;;
8946;SDS011;4508;48.790;9.028;2022-11-09T00:07:21;3.40;;;2.58;;
8946;SDS011;4508;48.790;9.028;2022-11-09T00:09:48;4.10;;;2.60;;
8946;SDS011;4508;48.790;9.028;2022-11-09T00:12:15;2.83;;;2.58;;
8946;SDS011;4508;48.790;9.028;2022-11-09T00:14:41;3.45;;;2.60;;
8946;SDS011;4508;48.790;9.028;2022-11-09T00:17:08;2.75;;;2.53;;
8946;SDS011;4508;48.790;9.028;2022-11-09T00:19:36;2.77;;;2.47;;
8946;SDS011;4508;48.790;9.028;2022-11-09T00:22:03;2.87;;;2.50;;
8946;SDS011;4508;48.790;9.028;2022-11-09T00:24:29;3.40;;;2.60;;
8946;SDS011;4508;48.790;9.028;2022-11-09T00:26:56;3.33;;;2.50;;
8946;SDS011;4508;48.790;9.028;2022-11-09T00:29:23;3.05;;;2.60;;
8946;SDS011;4508;48.790;9.028;2022-11-09T00:31:49;3.85;;;2.60;;
8946;SDS011;4508;48.790;9.028;2022-11-09T00:34:16;3.40;;;2.72;;
8946;SDS011;4508;48.790;9.028;2022-11-09T00:36:44;3.10;;;2.70;;
8946;SDS011;4508;48.790;9.028;2022-11-09T00:39:11;3.22;;;2.47;;
8946;SDS011;4508;48.790;9.028;2022-11-09T00:41:37;3.03;;;2.50;;
8946;SDS011;4508;48.790;9.028;2022-11-09T00:44:04;3.20;;;2.60;;
8946;SDS011;4508;48.790;9.028;2022-11-09T00:46:31;2.87;;;2.57;;
8946;SDS011;4508;48.790;9.028;2022-11-09T00:48:57;2.92;;;2.42;;
8946;SDS011;4508;48.790;9.028;2022-11-09T00:51:24;3.40;;;2.55;;
8946;SDS011;4508;48.790;9.028;2022-11-09T00:53:54;3.17;;;2.60;;
8946;SDS011;4508;48.790;9.028;2022-11-09T00:56:22;3.35;;;2.60;;
8946;SDS011;4508;48.790;9.028;2022-11-09T00:58:51;2.77;;;2.40;;
8946;SDS011;4508;48.790;9.028;2022-11-09T01:01:19;3.45;;;2.70;;
8946;SDS011;4508;48.790;9.028;2022-11-09T01:03:46;3.47;;;2.60;;
8946;SDS011;4508;48.790;9.028;2022-11-09T01:06:13;2.70;;;2.47;;
8946;SDS011;4508;48.790;9.028;2022-11-09T01:08:42;3.25;;;2.58;;
8946;SDS011;4508;48.790;9.028;2022-11-09T01:11:11;3.08;;;2.50;;
8946;SDS011;4508;48.790;9.028;2022-11-09T01:13:38;2.60;;;2.40;;
8946;SDS011;4508;48.790;9.028;2022-11-09T01:16:05;2.93;;;2.53;;
8946;SDS011;4508;48.790;9.028;2022-11-09T01:18:34;3.10;;;2.40;;
8946;SDS011;4508;48.790;9.028;2022-11-09T01:21:01;2.50;;;2.30;;
8946;SDS011;4508;48.790;9.028;2022-11-09T01:23:29;3.15;;;2.50;;
8946;SDS011;4508;48.790;9.028;2022-11-09T01:25:56;3.90;;;2.40;;
8946;SDS011;4508;48.790;9.028;2022-11-09T01:28:24;3.70;;;2.42;;
8946;SDS011;4508;48.790;9.028;2022-11-09T01:30:51;4.38;;;2.60;;
8946;SDS011;4508;48.790;9.028;2022-11-09T01:33:18;4.22;;;2.50;;
8946;SDS011;4508;48.790;9.028;2022-11-09T01:35:45;3.67;;;2.40;;
8946;SDS011;4508;48.790;9.028;2022-11-09T01:38:12;2.85;;;2.53;;
8946;SDS011;4508;48.790;9.028;2022-11-09T01:40:39;2.57;;;2.37;;
8946;SDS011;4508;48.790;9.028;2022-11-09T01:43:06;3.80;;;2.63;;
8946;SDS011;4508;48.790;9.028;2022-11-09T01:45:41;2.90;;;2.60;;
8946;SDS011;4508;48.790;9.028;2022-11-09T01:48:11;3.27;;;2.60;;
8946;SDS011;4508;48.790;9.028;2022-11-09T01:50:40;2.97;;;2.50;;
8946;SDS011;4508;48.790;9.028;2022-11-09T01:53:12;3.38;;;2.70;;
8946;SDS011;4508;48.790;9.028;2022-11-09T01:55:41;3.00;;;2.60;;
8946;SDS011;4508;48.790;9.028;2022-11-09T01:58:11;3.30;;;2.58;;
8946;SDS011;4508;48.790;9.028;2022-11-09T02:00:43;4.40;;;2.60;;
8946;SDS011;4508;48.790;9.028;2022-11-09T02:03:13;3.00;;;2.70;;
8946;SDS011;4508;48.790;9.028;2022-11-09T02:05:44;3.22;;;2.60;;
8946;SDS011;4508;48.790;9.028;2022-11-09T02:08:13;3.67;;;2.90;;
8946;SDS011;4508;48.790;9.028;2022-11-09T02:10:44;3.33;;;2.50;;
8946;SDS011;4508;48.790;9.028;2022-11-09T02:13:17;3.20;;;2.60;;
8946;SDS011;4508;48.790;9.028;2022-11-09T02:15:47;3.85;;;2.90;;
8946;SDS011;4508;48.790;9.028;2022-11-09T02:18:15;3.45;;;2.83;;
8946;SDS011;4508;48.790;9.028;2022-11-09T02:20:44;4.60;;;3.00;;
8946;SDS011;4508;48.790;9.028;2022-11-09T02:23:13;3.10;;;2.67;;
8946;SDS011;4508;48.790;9.028;2022-11-09T02:25:41;3.30;;;2.73;;
8946;SDS011;4508;48.790;9.028;2022-11-09T02:28:11;5.07;;;3.00;;
8946;SDS011;4508;48.790;9.028;2022-11-09T02:30:39;3.90;;;2.80;;
8946;SDS011;4508;48.790;9.028;2022-11-09T02:33:07;3.67;;;2.90;;
8946;SDS011;4508;48.790;9.028;2022-11-09T02:35:33;3.63;;;2.83;;
8946;SDS011;4508;48.790;9.028;2022-11-09T02:38:01;3.22;;;2.85;;
8946;SDS011;4508;48.790;9.028;2022-11-09T02:40:28;3.40;;;2.90;;
8946;SDS011;4508;48.790;9.028;2022-11-09T02:43:00;4.40;;;2.90;;
8946;SDS011;4508;48.790;9.028;2022-11-09T02:45:27;3.40;;;2.85;;
8946;SDS011;4508;48.790;9.028;2022-11-09T02:47:54;3.47;;;3.00;;
8946;SDS011;4508;48.790;9.028;2022-11-09T02:50:21;3.33;;;2.78;;
8946;SDS011;4508;48.790;9.028;2022-11-09T02:52:47;3.13;;;2.83;;
8946;SDS011;4508;48.790;9.028;2022-11-09T02:55:16;3.23;;;2.90;;
8946;SDS011;4508;48.790;9.028;2022-11-09T02:57:42;3.40;;;3.08;;
8946;SDS011;4508;48.790;9.028;2022-11-09T03:00:09;3.22;;;2.80;;
8946;SDS011;4508;48.790;9.028;2022-11-09T03:02:37;3.72;;;3.05;;
8946;SDS011;4508;48.790;9.028;2022-11-09T03:05:04;2.83;;;2.60;;
8946;SDS011;4508;48.790;9.028;2022-11-09T03:07:31;4.05;;;3.28;;
8946;SDS011;4508;48.790;9.028;2022-11-09T03:09:58;4.35;;;3.25;;
8946;SDS011;4508;48.790;9.028;2022-11-09T03:12:26;3.35;;;3.00;;
8946;SDS011;4508;48.790;9.028;2022-11-09T03:14:55;3.72;;;3.00;;
8946;SDS011;4508;48.790;9.028;2022-11-09T03:17:23;3.42;;;2.70;;
8946;SDS011;4508;48.790;9.028;2022-11-09T03:19:50;4.35;;;3.10;;
8946;SDS011;4508;48.790;9.028;2022-11-09T03:22:17;3.30;;;3.00;;
8946;SDS011;4508;48.790;9.028;2022-11-09T03:24:44;3.75;;;2.95;;
8946;SDS011;4508;48.790;9.028;2022-11-09T03:27:11;3.63;;;2.88;;
8946;SDS011;4508;48.790;9.028;2022-11-09T03:29:39;3.83;;;3.03;;
8946;SDS011;4508;48.790;9.028;2022-11-09T03:32:06;3.83;;;2.83;;
8946;SDS011;4508;48.790;9.028;2022-11-09T03:34:33;3.75;;;3.20;;
8946;SDS011;4508;48.790;9.028;2022-11-09T03:36:59;3.40;;;3.10;;
8946;SDS011;4508;48.790;9.028;2022-11-09T03:39:26;4.13;;;3.00;;
8946;SDS011;4508;48.790;9.028;2022-11-09T03:41:53;4.27;;;2.90;;
8946;SDS011;4508;48.790;9.028;2022-11-09T03:44:19;3.10;;;2.80;;
8946;SDS011;4508;48.790;9.028;2022-11-09T03:46:48;3.22;;;2.85;;
8946;SDS011;4508;48.790;9.028;2022-11-09T03:49:15;4.30;;;2.53;;
8946;SDS011;4508;48.790;9.028;2022-11-09T03:51:42;3.17;;;2.67;;
8946;SDS011;4508;48.790;9.028;2022-11-09T03:54:08;3.90;;;2.72;;
8946;SDS011;4508;48.790;9.028;2022-11-09T03:56:35;2.97;;;2.75;;
8946;SDS011;4508;48.790;9.028;2022-11-09T03:59:02;3.00;;;2.70;;
8946;SDS011;4508;48.790;9.028;2022-11-09T04:01:28;3.30;;;2.57;;
8946;SDS011;4508;48.790;9.028;2022-11-09T04:03:56;3.03;;;2.70;;
8946;SDS011;4508;48.790;9.028;2022-11-09T04:06:23;2.50;;;2.22;;
8946;SDS011;4508;48.790;9.028;2022-11-09T04:08:50;2.55;;;2.15;;
8946;SDS011;4508;48.790;9.028;2022-11-09T04:11:16;2.50;;;2.03;;
8946;SDS011;4508;48.790;9.028;2022-11-09T04:13:43;3.80;;;2.30;;
8946;SDS011;4508;48.790;9.028;2022-11-09T04:16:11;2.60;;;2.40;;
8946;SDS011;4508;48.790;9.028;2022-11-09T04:18:38;2.45;;;2.25;;
8946;SDS011;4508;48.790;9.028;2022-11-09T04:21:06;3.00;;;2.40;;
8946;SDS011;4508;48.790;9.028;2022-11-09T04:23:32;2.90;;;2.22;;
8946;SDS011;4508;48.790;9.028;2022-11-09T04:25:59;2.80;;;2.47;;
8946;SDS011;4508;48.790;9.028;2022-11-09T04:28:26;2.70;;;2.20;;
8946;SDS011;4508;48.790;9.028;2022-11-09T04:30:52;2.58;;;2.03;;
8946;SDS011;4508;48.790;9.028;2022-11-09T04:33:19;2.95;;;2.38;;
8946;SDS011;4508;48.790;9.028;2022-11-09T04:35:46;2.88;;;2.25;;
8946;SDS011;4508;48.790;9.028;2022-11-09T04:38:14;2.87;;;2.40;;
8946;SDS011;4508;48.790;9.028;2022-11-09T04:40:41;3.47;;;2.40;;
8946;SDS011;4508;48.790;9.028;2022-11-09T04:43:09;2.40;;;2.10;;
8946;SDS011;4508;48.790;9.028;2022-11-09T04:45:38;4.50;;;2.60;;
8946;SDS011;4508;48.790;9.028;2022-11-09T04:48:05;2.40;;;2.20;;
8946;SDS011;4508;48.790;9.028;2022-11-09T04:50:33;2.88;;;2.10;;
8946;SDS011;4508;48.790;9.028;2022-11-09T04:53:03;2.67;;;2.05;;
8946;SDS011;4508;48.790;9.028;2022-11-09T04:55:35;4.07;;;2.40;;
8946;SDS011;4508;48.790;9.028;2022-11-09T04:58:02;3.38;;;2.20;;
8946;SDS011;4508;48.790;9.028;2022-11-09T05:00:29;2.60;;;2.22;;
8946;SDS011;4508;48.790;9.028;2022-11-09T05:02:57;3.30;;;2.25;;
8946;SDS011;4508;48.790;9.028;2022-11-09T05:05:26;2.40;;;2.10;;
8946;SDS011;4508;48.790;9.028;2022-11-09T05:07:53;2.35;;;2.10;;
8946;SDS011;4508;48.790;9.028;2022-11-09T05:10:19;2.93;;;1.80;;
8946;SDS011;4508;48.790;9.028;2022-11-09T05:12:47;3.08;;;1.85;;
8946;SDS011;4508;48.790;9.028;2022-11-09T05:15:14;2.90;;;1.98;;
8946;SDS011;4508;48.790;9.028;2022-11-09T05:17:41;2.67;;;1.77;;
8946;SDS011;4508;48.790;9.028;2022-11-09T05:20:08;2.00;;;1.70;;
8946;SDS011;4508;48.790;9.028;2022-11-09T05:22:38;2.97;;;1.95;;
8946;SDS011;4508;48.790;9.028;2022-11-09T05:25:22;2.80;;;1.90;;
8946;SDS011;4508;48.790;9.028;2022-11-09T05:27:51;2.40;;;1.90;;
8946;SDS011;4508;48.790;9.028;2022-11-09T05:30:18;2.35;;;2.10;;
8946;SDS011;4508;48.790;9.028;2022-11-09T05:32:45;2.53;;;2.10;;
8946;SDS011;4508;48.790;9.028;2022-11-09T05:35:12;2.70;;;2.10;;
8946;SDS011;4508;48.790;9.028;2022-11-09T05:37:39;2.97;;;2.10;;
8946;SDS011;4508;48.790;9.028;2022-11-09T05:40:06;3.65;;;2.40;;
8946;SDS011;4508;48.790;9.028;2022-11-09T05:42:36;4.15;;;2.40;;
8946;SDS011;4508;48.790;9.028;2022-11-09T05:45:05;3.40;;;2.50;;
8946;SDS011;4508;48.790;9.028;2022-11-09T05:47:35;2.50;;;2.30;;
8946;SDS011;4508;48.790;9.028;2022-11-09T05:50:02;2.55;;;2.25;;
8946;SDS011;4508;48.790;9.028;2022-11-09T05:52:30;2.73;;;2.40;;
8946;SDS011;4508;48.790;9.028;2022-11-09T05:54:56;3.58;;;2.45;;
8946;SDS011;4508;48.790;9.028;2022-11-09T05:57:24;3.20;;;2.80;;
8946;SDS011;4508;48.790;9.028;2022-11-09T05:59:51;3.73;;;2.83;;
8946;SDS011;4508;48.790;9.028;2022-11-09T06:02:19;3.42;;;2.75;;
8946;SDS011;4508;48.790;9.028;2022-11-09T06:04:46;3.15;;;2.88;;
8946;SDS011;4508;48.790;9.028;2022-11-09T06:07:13;3.17;;;2.75;;
8946;SDS011;4508;48.790;9.028;2022-11-09T06:09:40;3.83;;;2.90;;
8946;SDS011;4508;48.790;9.028;2022-11-09T06:12:07;3.30;;;2.80;;
8946;SDS011;4508;48.790;9.028;2022-11-09T06:14:33;2.73;;;2.53;;
8946;SDS011;4508;48.790;9.028;2022-11-09T06:17:00;4.80;;;3.08;;
8946;SDS011;4508;48.790;9.028;2022-11-09T06:19:28;3.67;;;2.70;;
8946;SDS011;4508;48.790;9.028;2022-11-09T06:21:55;3.60;;;3.03;;
8946;SDS011;4508;48.790;9.028;2022-11-09T06:24:21;3.38;;;2.95;;
8946;SDS011;4508;48.790;9.028;2022-11-09T06:26:48;2.95;;;2.65;;
8946;SDS011;4508;48.790;9.028;2022-11-09T06:29:15;4.20;;;3.00;;
8946;SDS011;4508;48.790;9.028;2022-11-09T06:31:41;3.38;;;2.80;;
8946;SDS011;4508;48.790;9.028;2022-11-09T06:34:08;4.07;;;3.00;;
8946;SDS011;4508;48.790;9.028;2022-11-09T06:36:36;3.53;;;2.88;;
8946;SDS011;4508;48.790;9.028;2022-11-09T06:39:03;3.90;;;2.75;;
8946;SDS011;4508;48.790;9.028;2022-11-09T06:41:32;3.78;;;3.00;;
8946;SDS011;4508;48.790;9.028;2022-11-09T06:43:59;2.88;;;2.50;;
8946;SDS011;4508;48.790;9.028;2022-11-09T06:46:26;4.00;;;2.80;;
8946;SDS011;4508;48.790;9.028;2022-11-09T06:48:53;3.28;;;2.80;;
8946;SDS011;4508;48.790;9.028;2022-11-09T06:51:19;3.38;;;2.58;;
8946;SDS011;4508;48.790;9.028;2022-11-09T06:53:47;3.30;;;2.80;;
8946;SDS011;4508;48.790;9.028;2022-11-09T06:56:14;4.03;;;2.80;;
8946;SDS011;4508;48.790;9.028;2022-11-09T06:58:41;3.75;;;2.70;;
8946;SDS011;4508;48.790;9.028;2022-11-09T07:01:08;3.83;;;3.25;;
8946;SDS011;4508;48.790;9.028;2022-11-09T07:03:36;3.50;;;2.95;;
8946;SDS011;4508;48.790;9.028;2022-11-09T07:06:04;3.33;;;3.00;;
8946;SDS011;4508;48.790;9.028;2022-11-09T07:08:33;3.50;;;3.20;;
8946;SDS011;4508;48.790;9.028;2022-11-09T07:11:04;4.10;;;3.13;;
8946;SDS011;4508;48.790;9.028;2022-11-09T07:13:32;3.78;;;3.10;;
8946;SDS011;4508;48.790;9.028;2022-11-09T07:15:59;4.28;;;3.15;;
8946;SDS011;4508;48.790;9.028;2022-11-09T07:18:26;4.33;;;3.10;;
8946;SDS011;4508;48.790;9.028;2022-11-09T07:20:52;3.45;;;2.65;;
8946;SDS011;4508;48.790;9.028;2022-11-09T07:23:19;3.70;;;2.72;;
8946;SDS011;4508;48.790;9.028;2022-11-09T07:25:46;4.00;;;3.57;;
8946;SDS011;4508;48.790;9.028;2022-11-09T07:28:14;4.38;;;2.95;;
8946;SDS011;4508;48.790;9.028;2022-11-09T07:30:41;3.95;;;3.08;;
8946;SDS011;4508;48.790;9.028;2022-11-09T07:33:11;3.30;;;3.00;;
8946;SDS011;4508;48.790;9.028;2022-11-09T07:35:39;2.90;;;2.60;;
8946;SDS011;4508;48.790;9.028;2022-11-09T07:38:06;4.07;;;2.70;;
8946;SDS011;4508;48.790;9.028;2022-11-09T07:40:33;2.60;;;2.40;;
8946;SDS011;4508;48.790;9.028;2022-11-09T07:43:01;2.47;;;2.28;;
8946;SDS011;4508;48.790;9.028;2022-11-09T07:45:31;2.60;;;2.40;;
8946;SDS011;4508;48.790;9.028;2022-11-09T07:47:59;2.75;;;2.40;;
8946;SDS011;4508;48.790;9.028;2022-11-09T07:50:27;2.45;;;2.10;;
8946;SDS011;4508;48.790;9.028;2022-11-09T07:52:55;2.20;;;2.00;;
8946;SDS011;4508;48.790;9.028;2022-11-09T07:55:22;2.13;;;1.95;;
8946;SDS011;4508;48.790;9.028;2022-11-09T07:57:53;2.45;;;2.20;;
8946;SDS011;4508;48.790;9.028;2022-11-09T08:00:20;2.25;;;2.03;;
8946;SDS011;4508;48.790;9.028;2022-11-09T08:02:48;2.60;;;2.20;;
8946;SDS011;4508;48.790;9.028;2022-11-09T08:05:15;3.28;;;2.30;;
8946;SDS011;4508;48.790;9.028;2022-11-09T08:07:42;3.00;;;2.20;;
8946;SDS011;4508;48.790;9.028;2022-11-09T08:10:09;2.70;;;2.50;;
8946;SDS011;4508;48.790;9.028;2022-11-09T08:12:35;2.63;;;2.42;;
8946;SDS011;4508;48.790;9.028;2022-11-09T08:15:02;4.25;;;2.50;;
8946;SDS011;4508;48.790;9.028;2022-11-09T08:17:30;2.67;;;2.40;;
8946;SDS011;4508;48.790;9.028;2022-11-09T08:19:58;3.15;;;2.40;;
8946;SDS011;4508;48.790;9.028;2022-11-09T08:22:24;2.88;;;2.58;;
8946;SDS011;4508;48.790;9.028;2022-11-09T08:24:51;3.40;;;2.70;;
8946;SDS011;4508;48.790;9.028;2022-11-09T08:27:18;3.50;;;3.00;;
8946;SDS011;4508;48.790;9.028;2022-11-09T08:29:46;3.60;;;2.90;;
8946;SDS011;4508;48.790;9.028;2022-11-09T08:32:13;3.33;;;2.90;;
8946;SDS011;4508;48.790;9.028;2022-11-09T08:34:40;3.67;;;2.80;;
8946;SDS011;4508;48.790;9.028;2022-11-09T08:37:08;3.20;;;2.90;;
8946;SDS011;4508;48.790;9.028;2022-11-09T08:39:34;3.58;;;2.60;;
8946;SDS011;4508;48.790;9.028;2022-11-09T08:42:01;3.22;;;2.60;;
8946;SDS011;4508;48.790;9.028;2022-11-09T08:44:28;3.03;;;2.40;;
8946;SDS011;4508;48.790;9.028;2022-11-09T08:46:54;4.10;;;2.67;;
8946;SDS011;4508;48.790;9.028;2022-11-09T08:49:21;3.08;;;2.40;;
8946;SDS011;4508;48.790;9.028;2022-11-09T08:51:48;2.40;;;2.17;;
8946;SDS011;4508;48.790;9.028;2022-11-09T08:54:16;2.33;;;1.88;;
8946;SDS011;4508;48.790;9.028;2022-11-09T08:56:43;2.08;;;1.90;;
8946;SDS011;4508;48.790;9.028;2022-11-09T08:59:10;2.08;;;1.80;;
8946;SDS011;4508;48.790;9.028;2022-11-09T09:01:37;3.63;;;1.77;;
8946;SDS011;4508;48.790;9.028;2022-11-09T09:04:04;2.28;;;1.90;;
8946;SDS011;4508;48.790;9.028;2022-11-09T09:06:30;2.50;;;1.70;;
8946;SDS011;4508;48.790;9.028;2022-11-09T09:08:57;2.20;;;1.88;;
8946;SDS011;4508;48.790;9.028;2022-11-09T09:11:25;2.28;;;1.80;;
8946;SDS011;4508;48.790;9.028;2022-11-09T09:13:52;1.95;;;1.55;;
8946;SDS011;4508;48.790;9.028;2022-11-09T09:16:18;1.93;;;1.80;;
8946;SDS011;4508;48.790;9.028;2022-11-09T09:18:46;2.42;;;1.77;;
8946;SDS011;4508;48.790;9.028;2022-11-09T09:21:13;2.30;;;1.70;;
8946;SDS011;4508;48.790;9.028;2022-11-09T09:23:40;1.73;;;1.60;;
8946;SDS011;4508;48.790;9.028;2022-11-09T09:26:07;1.60;;;1.40;;
8946;SDS011;4508;48.790;9.028;2022-11-09T09:28:35;2.15;;;1.48;;
8946;SDS011;4508;48.790;9.028;2022-11-09T09:31:02;1.33;;;1.10;;
8946;SDS011;4508;48.790;9.028;2022-11-09T09:33:29;1.30;;;1.10;;
8946;SDS011;4508;48.790;9.028;2022-11-09T09:35:55;1.70;;;1.10;;
8946;SDS011;4508;48.790;9.028;2022-11-09T09:38:23;1.92;;;1.48;;
8946;SDS011;4508;48.790;9.028;2022-11-09T09:40:53;1.77;;;1.27;;
8946;SDS011;4508;48.790;9.028;2022-11-09T09:43:24;1.38;;;1.23;;
8946;SDS011;4508;48.790;9.028;2022-11-09T09:45:56;1.27;;;1.00;;
8946;SDS011;4508;48.790;9.028;2022-11-09T09:48:26;1.77;;;1.40;;
8946;SDS011;4508;48.790;9.028;2022-11-09T09:50:58;1.40;;;1.30;;
8946;SDS011;4508;48.790;9.028;2022-11-09T09:53:31;1.60;;;1.30;;
8946;SDS011;4508;48.790;9.028;2022-11-09T09:56:02;1.60;;;1.38;;
8946;SDS011;4508;48.790;9.028;2022-11-09T09:58:35;1.85;;;1.52;;
8946;SDS011;4508;48.790;9.028;2022-11-09T10:01:11;1.83;;;1.50;;
8946;SDS011;4508;48.790;9.028;2022-11-09T10:03:40;2.10;;;1.80;;
8946;SDS011;4508;48.790;9.028;2022-11-09T10:06:10;2.95;;;1.75;;
8946;SDS011;4508;48.790;9.028;2022-11-09T10:08:52;1.88;;;1.63;;
8946;SDS011;4508;48.790;9.028;2022-11-09T10:11:28;2.00;;;1.60;;
8946;SDS011;4508;48.790;9.028;2022-11-09T10:14:05;2.35;;;1.85;;
8946;SDS011;4508;48.790;9.028;2022-11-09T10:16:47;2.10;;;1.90;;
8946;SDS011;4508;48.790;9.028;2022-11-09T10:19:26;2.30;;;1.70;;
8946;SDS011;4508;48.790;9.028;2022-11-09T10:22:09;2.80;;;1.80;;
8946;SDS011;4508;48.790;9.028;2022-11-09T10:24:43;2.30;;;1.92;;
8946;SDS011;4508;48.790;9.028;2022-11-09T10:27:21;2.10;;;1.95;;
8946;SDS011;4508;48.790;9.028;2022-11-09T10:29:51;2.25;;;1.83;;
8946;SDS011;4508;48.790;9.028;2022-11-09T10:32:22;2.70;;;1.90;;
8946;SDS011;4508;48.790;9.028;2022-11-09T10:34:51;2.45;;;1.80;;
8946;SDS011;4508;48.790;9.028;2022-11-09T10:37:21;2.30;;;1.90;;
8946;SDS011;4508;48.790;9.028;2022-11-09T10:39:54;2.70;;;2.00;;
8946;SDS011;4508;48.790;9.028;2022-11-09T10:42:27;2.35;;;2.00;;
8946;SDS011;4508;48.790;9.028;2022-11-09T10:44:53;3.08;;;1.92;;
8946;SDS011;4508;48.790;9.028;2022-11-09T10:47:22;3.13;;;2.20;;
8946;SDS011;4508;48.790;9.028;2022-11-09T10:50:03;2.83;;;1.90;;
8946;SDS011;4508;48.790;9.028;2022-11-09T10:52:33;2.10;;;1.90;;
8946;SDS011;4508;48.790;9.028;2022-11-09T10:55:15;2.88;;;1.90;;
8946;SDS011;4508;48.790;9.028;2022-11-09T10:57:51;2.80;;;1.98;;
8946;SDS011;4508;48.790;9.028;2022-11-09T11:00:20;2.20;;;1.80;;
8946;SDS011;4508;48.790;9.028;2022-11-09T11:02:48;2.80;;;1.98;;
8946;SDS011;4508;48.790;9.028;2022-11-09T11:05:26;2.35;;;1.90;;
8946;SDS011;4508;48.790;9.028;2022-11-09T11:07:55;2.37;;;2.03;;
8946;SDS011;4508;48.790;9.028;2022-11-09T11:10:22;2.92;;;2.05;;
8946;SDS011;4508;48.790;9.028;2022-11-09T11:15:46;2.20;;;1.80;;
8946;SDS011;4508;48.790;9.028;2022-11-09T11:18:15;3.20;;;1.95;;
8946;SDS011;4508;48.790;9.028;2022-11-09T11:20:46;2.30;;;2.00;;
8946;SDS011;4508;48.790;9.028;2022-11-09T11:23:13;2.25;;;2.00;;
8946;SDS011;4508;48.790;9.028;2022-11-09T11:26:00;2.05;;;1.80;;
8946;SDS011;4508;48.790;9.028;2022-11-09T11:28:38;2.30;;;1.95;;
8946;SDS011;4508;48.790;9.028;2022-11-09T11:31:09;2.33;;;2.13;;
8946;SDS011;4508;48.790;9.028;2022-11-09T11:33:40;2.92;;;2.05;;
8946;SDS011;4508;48.790;9.028;2022-11-09T11:36:10;3.27;;;2.00;;
8946;SDS011;4508;48.790;9.028;2022-11-09T11:38:46;2.45;;;2.00;;
8946;SDS011;4508;48.790;9.028;2022-11-09T11:41:26;2.30;;;2.10;;
8946;SDS011;4508;48.790;9.028;2022-11-09T11:44:07;2.45;;;2.00;;
8946;SDS011;4508;48.790;9.028;2022-11-09T11:46:44;2.15;;;1.88;;
8946;SDS011;4508;48.790;9.028;2022-11-09T11:49:29;4.00;;;2.03;;
8946;SDS011;4508;48.790;9.028;2022-11-09T11:52:09;2.55;;;1.90;;
8946;SDS011;4508;48.790;9.028;2022-11-09T11:54:45;2.25;;;2.05;;
8946;SDS011;4508;48.790;9.028;2022-11-09T11:57:22;2.97;;;2.00;;
8946;SDS011;4508;48.790;9.028;2022-11-09T11:59:58;2.45;;;1.95;;
8946;SDS011;4508;48.790;9.028;2022-11-09T12:02:42;1.95;;;1.77;;
8946;SDS011;4508;48.790;9.028;2022-11-09T12:05:44;2.75;;;1.90;;
8946;SDS011;4508;48.790;9.028;2022-11-09T12:08:24;2.22;;;1.98;;
8946;SDS011;4508;48.790;9.028;2022-11-09T12:10:58;2.90;;;2.00;;
8946;SDS011;4508;48.790;9.028;2022-11-09T12:13:42;2.40;;;1.70;;
8946;SDS011;4508;48.790;9.028;2022-11-09T12:16:21;2.58;;;1.88;;
8946;SDS011;4508;48.790;9.028;2022-11-09T12:18:56;2.08;;;1.85;;
8946;SDS011;4508;48.790;9.028;2022-11-09T12:21:36;2.10;;;1.90;;
8946;SDS011;4508;48.790;9.028;2022-11-09T12:24:13;2.22;;;1.90;;
8946;SDS011;4508;48.790;9.028;2022-11-09T12:26:47;2.08;;;1.73;;
8946;SDS011;4508;48.790;9.028;2022-11-09T12:29:27;3.03;;;1.70;;
8946;SDS011;4508;48.790;9.028;2022-11-09T12:32:01;2.17;;;1.92;;
8946;SDS011;4508;48.790;9.028;2022-11-09T12:34:38;2.55;;;2.00;;
8946;SDS011;4508;48.790;9.028;2022-11-09T12:37:12;3.50;;;2.00;;
8946;SDS011;4508;48.790;9.028;2022-11-09T12:39:44;1.95;;;1.77;;
8946;SDS011;4508;48.790;9.028;2022-11-09T12:42:12;2.28;;;1.95;;
8946;SDS011;4508;48.790;9.028;2022-11-09T12:44:45;2.63;;;1.90;;
8946;SDS011;4508;48.790;9.028;2022-11-09T12:47:18;2.42;;;1.90;;
8946;SDS011;4508;48.790;9.028;2022-11-09T12:49:52;2.20;;;1.98;;
8946;SDS011;4508;48.790;9.028;2022-11-09T12:52:23;2.90;;;2.10;;
8946;SDS011;4508;48.790;9.028;2022-11-09T12:54:52;2.55;;;2.03;;
8946;SDS011;4508;48.790;9.028;2022-11-09T12:57:21;3.20;;;2.10;;
8946;SDS011;4508;48.790;9.028;2022-11-09T12:59:49;2.47;;;2.05;;
8946;SDS011;4508;48.790;9.028;2022-11-09T13:02:20;2.23;;;2.00;;
8946;SDS011;4508;48.790;9.028;2022-11-09T13:04:54;2.47;;;2.03;;
8946;SDS011;4508;48.790;9.028;2022-11-09T13:07:31;2.40;;;2.20;;
8946;SDS011;4508;48.790;9.028;2022-11-09T13:10:25;2.90;;;2.22;;
8946;SDS011;4508;48.790;9.028;2022-11-09T13:13:02;2.50;;;2.30;;
8946;SDS011;4508;48.790;9.028;2022-11-09T13:15:30;2.78;;;2.20;;
8946;SDS011;4508;48.790;9.028;2022-11-09T13:17:59;2.72;;;2.00;;
8946;SDS011;4508;48.790;9.028;2022-11-09T13:20:43;2.47;;;2.20;;
8946;SDS011;4508;48.790;9.028;2022-11-09T13:23:26;2.40;;;2.20;;
8946;SDS011;4508;48.790;9.028;2022-11-09T13:26:03;2.55;;;2.25;;
8946;SDS011;4508;48.790;9.028;2022-11-09T13:28:40;2.38;;;2.17;;
8946;SDS011;4508;48.790;9.028;2022-11-09T13:34:47;2.63;;;2.17;;
8946;SDS011;4508;48.790;9.028;2022-11-09T13:37:34;2.50;;;2.13;;
8946;SDS011;4508;48.790;9.028;2022-11-09T13:43:15;2.50;;;2.20;;
8946;SDS011;4508;48.790;9.028;2022-11-09T13:45:48;2.60;;;2.40;;
8946;SDS011;4508;48.790;9.028;2022-11-09T13:48:26;2.65;;;2.20;;
8946;SDS011;4508;48.790;9.028;2022-11-09T13:50:57;3.20;;;2.20;;
8946;SDS011;4508;48.790;9.028;2022-11-09T13:53:26;2.63;;;2.10;;
8946;SDS011;4508;48.790;9.028;2022-11-09T13:55:56;3.40;;;2.33;;
8946;SDS011;4508;48.790;9.028;2022-11-09T13:58:24;2.50;;;2.10;;
8946;SDS011;4508;48.790;9.028;2022-11-09T14:00:54;5.25;;;2.80;;
8946;SDS011;4508;48.790;9.028;2022-11-09T14:03:22;5.28;;;3.70;;
8946;SDS011;4508;48.790;9.028;2022-11-09T14:05:51;7.18;;;4.80;;
8946;SDS011;4508;48.790;9.028;2022-11-09T14:08:21;4.20;;;3.55;;
8946;SDS011;4508;48.790;9.028;2022-11-09T14:10:58;3.97;;;3.40;;
8946;SDS011;4508;48.790;9.028;2022-11-09T14:13:45;3.25;;;2.70;;
8946;SDS011;4508;48.790;9.028;2022-11-09T14:16:29;3.08;;;2.30;;
8946;SDS011;4508;48.790;9.028;2022-11-09T14:19:07;3.28;;;2.20;;
8946;SDS011;4508;48.790;9.028;2022-11-09T14:21:44;4.97;;;2.20;;
8946;SDS011;4508;48.790;9.028;2022-11-09T14:24:13;3.17;;;2.30;;
8946;SDS011;4508;48.790;9.028;2022-11-09T14:26:59;2.95;;;2.33;;
8946;SDS011;4508;48.790;9.028;2022-11-09T14:29:45;3.05;;;2.30;;
8946;SDS011;4508;48.790;9.028;2022-11-09T14:32:20;3.97;;;2.40;;
8946;SDS011;4508;48.790;9.028;2022-11-09T14:34:49;3.63;;;2.17;;
8946;SDS011;4508;48.790;9.028;2022-11-09T14:37:16;3.10;;;2.30;;
8946;SDS011;4508;48.790;9.028;2022-11-09T14:39:46;3.53;;;2.20;;
8946;SDS011;4508;48.790;9.028;2022-11-09T14:42:16;2.20;;;1.80;;
8946;SDS011;4508;48.790;9.028;2022-11-09T14:44:44;3.95;;;2.20;;
8946;SDS011;4508;48.790;9.028;2022-11-09T14:47:13;2.65;;;2.20;;
8946;SDS011;4508;48.790;9.028;2022-11-09T14:49:44;2.70;;;2.20;;
8946;SDS011;4508;48.790;9.028;2022-11-09T14:52:11;3.20;;;2.10;;
8946;SDS011;4508;48.790;9.028;2022-11-09T14:54:42;2.58;;;2.00;;
8946;SDS011;4508;48.790;9.028;2022-11-09T14:57:12;2.15;;;1.95;;
8946;SDS011;4508;48.790;9.028;2022-11-09T14:59:41;2.90;;;2.00;;
8946;SDS011;4508;48.790;9.028;2022-11-09T15:02:11;2.92;;;2.10;;
8946;SDS011;4508;48.790;9.028;2022-11-09T15:04:53;2.45;;;2.00;;
8946;SDS011;4508;48.790;9.028;2022-11-09T15:07:22;2.70;;;2.00;;
8946;SDS011;4508;48.790;9.028;2022-11-09T15:09:52;2.88;;;2.00;;
8946;SDS011;4508;48.790;9.028;2022-11-09T15:12:23;2.20;;;2.00;;
8946;SDS011;4508;48.790;9.028;2022-11-09T15:14:51;2.10;;;1.80;;
8946;SDS011;4508;48.790;9.028;2022-11-09T15:17:21;2.65;;;2.03;;
8946;SDS011;4508;48.790;9.028;2022-11-09T15:19:52;5.20;;;2.53;;
8946;SDS011;4508;48.790;9.028;2022-11-09T15:22:40;4.70;;;2.60;;
8946;SDS011;4508;48.790;9.028;2022-11-09T15:25:19;3.55;;;2.20;;
8946;SDS011;4508;48.790;9.028;2022-11-09T15:27:56;2.95;;;2.20;;
8946;SDS011;4508;48.790;9.028;2022-11-09T15:30:29;3.47;;;2.40;;
8946;SDS011;4508;48.790;9.028;2022-11-09T15:32:58;3.63;;;2.57;;
8946;SDS011;4508;48.790;9.028;2022-11-09T15:35:25;3.30;;;2.20;;
8946;SDS011;4508;48.790;9.028;2022-11-09T15:37:52;3.08;;;2.15;;
8946;SDS011;4508;48.790;9.028;2022-11-09T15:40:21;3.45;;;2.20;;